Flight Track Log - Related Links

Times and Time Zones

All times are in EDT time to prevent confusion due to time zone crossing. See the VH-PIE flight status page for this flight to view local times or setup timezone preferences in your user account.

Time Position Orientation Groundspeed Altitude Reporting Facility
EDT Latitude Longitude Course Direction KTS MPH feet Rate Location/Type
Sat 12:48:28 AM -33.9313 151.0052 349° North 91 105 700  Level Aus ATC (RADAR)
Sat 12:49:29 AM -33.9095 151.0001 349° North 104 120 1,700 1,000 Climbing Aus ATC (RADAR)
Sat 12:50:04 AM -33.9014 150.9830 300° West 96 110 2,300 857 Climbing Aus ATC (RADAR)
Sat 12:50:53 AM -33.8889 150.9588 302° West 100 115 2,900 462 Climbing Aus ATC (RADAR)
Sat 12:51:48 AM -33.8715 150.9260 302° West 131 151 3,100 55 Climbing Aus ATC (RADAR)
Sat 12:52:43 AM -33.8549 150.8860 297° West 139 160 3,000 133 Descending Aus ATC (RADAR)
Sat 12:53:18 AM -33.8607 150.8642 252° West 122 140 3,300 600 Climbing Aus ATC (RADAR)
Sat 12:54:13 AM -33.8886 150.8661 177° South 105 121 3,900 400 Climbing Aus ATC (RADAR)
Sat 12:55:03 AM -33.9145 150.8649 182° South 117 135 4,000 120 Climbing Aus ATC (RADAR)
Sat 12:55:53 AM -33.9442 150.8593 189° South 132 152 4,100  Climbing Aus ATC (RADAR)
Sat 12:56:28 AM -33.9661 150.8557 188° South 136 157 4,000 -71 Descending Aus ATC (RADAR)
Sat 12:57:18 AM -33.9976 150.8514 186° South 136 157 4,000 75 Level Aus ATC (RADAR)
Sat 12:57:48 AM -34.0162 150.8495 185° South 133 153 4,100  Climbing Aus ATC (RADAR)
Sat 12:58:58 AM -34.0592 150.8416 189° South 135 155 4,000 -57 Descending Aus ATC (RADAR)
Sat 12:59:33 AM -34.0809 150.8399 184° South 134 154 4,000 61 Level Aus ATC (RADAR)
Sat 01:00:37 AM -34.1203 150.8344 187° South 132 152 4,100 48 Climbing Aus ATC (RADAR)
Sat 01:01:37 AM -34.1568 150.8308 185° South 131 151 4,100  Level Aus ATC (RADAR)
Sat 01:02:22 AM -34.1845 150.8288 183° South 134 154 4,100 75 Level Aus ATC (RADAR)
Sat 01:02:57 AM -34.2047 150.8232 193° South 128 147 4,200  Climbing Aus ATC (RADAR)
Sat 01:03:47 AM -34.2319 150.8074 206° Southwest 128 147 4,100 -141 Descending Aus ATC (RADAR)
Sat 01:04:22 AM -34.2506 150.7966 206° Southwest 128 147 4,000 -67 Descending Aus ATC (RADAR)
Sat 01:05:17 AM -34.2789 150.7812 204° Southwest 120 138 4,000  Level Aus ATC (RADAR)
Sat 01:06:07 AM -34.3046 150.7673 204° Southwest 119 137 4,000  Level Aus ATC (RADAR)
Sat 01:07:02 AM -34.3146 150.7376 248° West 115 132 4,000  Level Aus ATC (RADAR)
Sat 01:07:37 AM -34.2990 150.7216 320° Northwest 123 142 4,000  Level Aus ATC (RADAR)
Sat 01:08:22 AM -34.2728 150.7159 350° North 125 144 4,000  Level Aus ATC (RADAR)
Sat 01:09:11 AM -34.2645 150.7399 67° East 103 119 4,000  Level Aus ATC (RADAR)
Sat 01:10:06 AM -34.2819 150.7597 137° Southeast 97 112 4,000  Level Aus ATC (RADAR)
Sat 01:10:56 AM -34.3047 150.7635 172° South 98 113 4,000  Level Aus ATC (RADAR)
Sat 01:11:51 AM -34.3186 150.7433 230° Southwest 116 133 4,000  Level Aus ATC (RADAR)
Sat 01:12:26 AM -34.3011 150.7311 330° Northwest 122 140 4,000  Level Aus ATC (RADAR)
Sat 01:13:26 AM -34.2690 150.7271 354° North 111 128 4,000 -126 Level Aus ATC (RADAR)
Sat 01:14:01 AM -34.2653 150.7427 74° East 94 108 3,800 -71 Descending Aus ATC (RADAR)
Sat 01:14:51 AM -34.2826 150.7583 143° Southeast 101 116 3,900  Climbing Aus ATC (RADAR)
Sat 01:15:26 AM -34.2998 150.7634 166° South 109 125 3,800 -120 Descending Aus ATC (RADAR)
Sat 01:16:31 AM -34.3328 150.7640 179° South 113 130 3,700 -211 Descending Aus ATC (RADAR)
Sat 01:17:20 AM -34.3556 150.7642 180° South 96 110 3,400 -135 Descending Aus ATC (RADAR)
Sat 01:18:00 AM -34.3727 150.7668 173° South 94 108 3,500 67 Climbing Aus ATC (RADAR)
Sat 01:18:50 AM -34.3990 150.7698 175° South 120 138 3,500 -400 Level Aus ATC (RADAR)
Sat 01:19:30 AM -34.4195 150.7720 175° South 112 129 2,900 -640 Descending Aus ATC (RADAR)
Sat 01:20:05 AM -34.4356 150.7748 172° South 100 115 2,700 -316 Descending Aus ATC (RADAR)
Sat 01:21:05 AM -34.4638 150.7764 177° South 104 120 2,400 -436 Descending Aus ATC (RADAR)
Sat 01:21:55 AM -34.4863 150.7783 176° South 95 109 1,900 100 Descending Aus ATC (RADAR)
Sat 01:24:42 AM -34.4942 150.7787 150° Southeast 4,000 195 Climbing Aus ATC (Calculated)
Sat 01:25:19 AM -34.4942 150.7787 150° Southeast 4,000 -266 Level Aus ATC (Calculated)
Sat 01:28:05 AM -34.5359 150.8081 176° South 130 150 3,100 -57 Descending Aus ATC (RADAR)
Sat 01:28:49 AM -34.5099 150.7969 341° North 130 150 3,800 929 Climbing Aus ATC (RADAR)
Sat 01:29:29 AM -34.4860 150.7905 347° North 131 151 4,400 316 Climbing Aus ATC (RADAR)
Sat 01:30:05 AM -34.4620 150.7846 349° North 147 169 4,200 -360 Descending Aus ATC (RADAR)
Sat 01:31:09 AM -34.4175 150.7647 340° North 159 183 3,800 -105 Descending Aus ATC (RADAR)
Sat 01:31:59 AM -34.3846 150.7533 344° North 148 170 4,000 133 Climbing Aus ATC (RADAR)
Sat 01:32:39 AM -34.3570 150.7430 343° North 155 178 4,000 80 Level Aus ATC (RADAR)
Sat 01:33:14 AM -34.3333 150.7363 347° North 149 171 4,100 60 Climbing Aus ATC (RADAR)
Sat 01:34:19 AM -34.2877 150.7312 355° North 155 178 4,100 -55 Level Aus ATC (RADAR)
Sat 01:35:04 AM -34.2545 150.7273 354° North 158 182 4,000 -109 Descending Aus ATC (RADAR)
Sat 01:36:09 AM -34.2070 150.7299 North 158 182 3,900 -180 Descending Aus ATC (RADAR)
Sat 01:36:44 AM -34.1821 150.7249 350° North 156 180 3,700  Descending Aus ATC (RADAR)
Sat 01:37:39 AM -34.1460 150.7129 345° North 145 167 3,900 67 Climbing Aus ATC (RADAR)
Sat 01:38:14 AM -34.1225 150.7070 348° North 147 169 3,800 -75 Descending Aus ATC (RADAR)
Sat 01:38:59 AM -34.0920 150.7023 353° North 147 169 3,800 75 Level Aus ATC (RADAR)
Sat 01:39:34 AM -34.0691 150.6986 352° North 142 163 3,900  Climbing Aus ATC (RADAR)
Sat 01:40:24 AM -34.0367 150.6951 355° North 138 159 3,800 -229 Descending Aus ATC (RADAR)
Sat 01:41:19 AM -34.0069 150.7151 29° Northeast 130 150 3,500 -467 Descending Aus ATC (RADAR)
Sat 01:41:54 AM -33.9911 150.7281 34° Northeast 119 137 3,100 -607 Descending Aus ATC (RADAR)
Sat 01:42:48 AM -33.9681 150.7502 39° Northeast 114 131 2,600 -404 Descending Aus ATC (RADAR)
Sat 01:43:23 AM -33.9522 150.7642 36° Northeast 121 139 2,500  Descending Aus ATC (RADAR)
Sat 01:44:19 AM -33.9273 150.7840 33° Northeast 117 135 2,600  Climbing Aus ATC (RADAR)
Sat 01:45:09 AM -33.9049 150.8024 34° Northeast 116 133 2,500 -39 Descending Aus ATC (RADAR)
Sat 01:46:53 AM -33.8616 150.8404 36° Northeast 107 123 2,500 -42 Level Aus ATC (RADAR)
Sat 01:47:33 AM -33.8643 150.8620 99° East 102 117 2,400 -400 Descending Aus ATC (RADAR)
Sat 01:48:08 AM -33.8727 150.8792 121° Southeast 102 117 2,000 -494 Descending Aus ATC (RADAR)
Sat 01:48:58 AM -33.8827 150.9049 115° Southeast 99 114 1,700 -525 Descending Aus ATC (RADAR)
Sat 01:49:28 AM -33.8883 150.9191 116° Southeast 92 106 1,300 -545 Descending Aus ATC (RADAR)
Sat 01:50:48 AM -33.9041 150.9557 117° Southeast 91 105 700 -522 Descending Aus ATC (RADAR)
Sat 01:51:23 AM -33.9122 150.9697 125° Southeast 85 98 300 -686 Descending Aus ATC (RADAR)

Login

Don't have an account? Register now (free) for customized features, flight alerts, and more!